Time;durP1;ratioP1;P1;durP2;ratioP2;P2;SDS_P1;SDS_P2;PMS_P1;PMS_P2;Temp;Humidity;BMP_temperature;BMP_pressure;BME280_temperature;BME280_humidity;BME280_pressure;Samples;Min_cycle;Max_cycle;Signal;HPM_P1;HPM_P2
2021/04/13 00:02:18;;;;;;;15.10;6.57;;;;;;;;;;5014921;28;20494;-60
2021/04/13 00:04:46;;;;;;;;;;;7.80;48.10;;;;;;5014937;28;20095;-55
2021/04/13 00:07:17;;;;;;;12.38;6.95;;;;;;;;;;5031812;28;19921;-60
2021/04/13 00:09:46;;;;;;;15.23;6.70;;;7.70;49.00;;;;;;5031824;28;20049;-58
2021/04/13 00:12:22;;;;;;;16.65;7.35;;;7.60;48.80;;;;;;5014121;28;20057;-60
2021/04/13 00:14:55;;;;;;;17.63;7.07;;;7.50;49.40;;;;;;5013789;28;20476;-60
2021/04/13 00:17:25;;;;;;;14.98;6.60;;;7.50;49.20;;;;;;5031899;28;20049;-60
2021/04/13 00:20:15;;;;;;;15.07;6.82;;;7.60;49.30;;;;;;5031233;28;20495;-60
2021/04/13 00:22:42;;;;;;;12.38;6.90;;;7.50;49.40;;;;;;5031510;28;20049;-61
2021/04/13 00:25:19;;;;;;;12.35;7.18;;;7.60;49.40;;;;;;5031796;28;20065;-61
2021/04/13 00:27:48;;;;;;;16.33;7.35;;;7.40;49.80;;;;;;5013529;28;20079;-59
2021/04/13 00:30:25;;;;;;;16.13;6.45;;;7.50;49.90;;;;;;5031724;28;20053;-61
2021/04/13 00:33:01;;;;;;;12.23;7.05;;;7.40;49.80;;;;;;5031438;28;20404;-59
2021/04/13 00:38:19;;;;;;;15.27;6.95;;;7.60;49.60;;;;;;5031533;28;20037;-60
2021/04/13 00:40:48;;;;;;;15.93;7.78;;;7.70;49.40;;;;;;5013618;28;20076;-60
2021/04/13 00:43:18;;;;;;;21.67;8.05;;;7.70;49.50;;;;;;5030947;28;20053;-61
2021/04/13 00:45:47;;;;;;;15.23;7.43;;;7.70;49.30;;;;;;5034960;28;20100;-59
2021/04/13 00:48:26;;;;;;;14.55;7.65;;;7.80;49.60;;;;;;5035630;28;20050;-59
2021/04/13 00:51:04;;;;;;;13.15;7.45;;;7.60;49.90;;;;;;5035092;28;20088;-60
2021/04/13 00:53:34;;;;;;;13.82;7.50;;;7.60;50.30;;;;;;5034976;28;20049;-57
2021/04/13 00:56:06;;;;;;;16.75;7.35;;;7.60;50.30;;;;;;5035158;28;20045;-59
2021/04/13 00:58:33;;;;;;;14.05;7.82;;;;;;;;;;5034705;28;20099;-59
2021/04/13 01:01:05;;;;;;;;;;;7.60;50.60;;;;;;5035569;28;20033;-57
2021/04/13 01:03:32;;;;;;;18.05;8.45;;;7.70;50.40;;;;;;5041699;28;19991;-60
2021/04/13 01:06:01;;;;;;;15.35;7.93;;;;;;;;;;5020435;28;20469;-59
2021/04/13 01:08:35;;;;;;;17.23;8.00;;;7.90;50.30;;;;;;5054954;28;20044;-59
2021/04/13 01:11:14;;;;;;;13.80;7.20;;;7.90;50.30;;;;;;5054550;28;20045;-61
2021/04/13 01:13:51;;;;;;;13.60;7.18;;;7.90;50.20;;;;;;5054702;28;20048;-57
2021/04/13 01:16:37;;;;;;;16.08;7.55;;;7.80;50.50;;;;;;5054426;28;20735;-59
2021/04/13 01:19:47;;;;;;;16.90;7.35;;;7.80;50.70;;;;;;5036980;28;20426;-60
2021/04/13 01:22:33;;;;;;;15.98;7.88;;;7.90;50.30;;;;;;5054696;28;20041;-60
2021/04/13 01:25:08;;;;;;;16.70;8.05;;;7.90;50.00;;;;;;5054126;28;20025;-61
2021/04/13 01:27:36;;;;;;;13.55;6.82;;;7.90;50.10;;;;;;5053927;28;20057;-59
2021/04/13 01:30:11;;;;;;;19.20;7.55;;;7.90;50.40;;;;;;5054367;28;20042;-60
2021/04/13 01:32:38;;;;;;;12.65;6.50;;;;;;;;;;5054518;28;20056;-61
2021/04/13 01:35:09;;;;;;;;;;;7.80;50.60;;;;;;5054631;28;20045;-58
2021/04/13 01:40:39;;;;;;;13.40;7.70;;;7.80;51.10;;;;;;5053635;28;20458;-61
2021/04/13 01:43:06;;;;;;;12.25;7.35;;;;;;;;;;5054217;28;20045;-58
2021/04/13 01:45:34;;;;;;;15.35;7.70;;;7.60;51.60;;;;;;5054287;28;20045;-59
2021/04/13 01:48:03;;;;;;;17.77;7.43;;;7.60;51.90;;;;;;5053753;28;20455;-59
2021/04/13 01:50:35;;;;;;;15.57;7.90;;;7.60;51.90;;;;;;5054156;28;20049;-60
2021/04/13 01:53:11;;;;;;;13.70;7.28;;;7.70;51.90;;;;;;5054126;28;20414;-61
2021/04/13 01:55:52;;;;;;;15.25;7.05;;;7.70;52.30;;;;;;5053483;28;20036;-59
2021/04/13 01:58:43;;;;;;;10.32;6.65;;;7.60;52.20;;;;;;5053918;28;20045;-60
2021/04/13 02:01:31;;;;;;;15.25;6.57;;;7.60;52.60;;;;;;5029212;28;20045;-60
2021/04/13 02:04:05;;;;;;;14.63;7.10;;;7.60;52.90;;;;;;5053844;28;20518;-60
2021/04/13 02:06:56;;;;;;;16.60;6.60;;;7.50;52.90;;;;;;5054114;28;20041;-59
2021/04/13 02:09:43;;;;;;;10.48;6.78;;;7.40;53.00;;;;;;5053582;28;20047;-59
2021/04/13 02:12:16;;;;;;;15.70;6.65;;;7.50;53.30;;;;;;5053729;28;20045;-59
2021/04/13 02:14:55;;;;;;;12.35;6.68;;;7.40;53.40;;;;;;5035749;28;20040;-60
2021/04/13 02:17:30;;;;;;;15.95;8.05;;;7.50;53.30;;;;;;5053618;28;20049;-60
2021/04/13 02:19:57;;;;;;;13.63;6.75;;;;;;;;;;5009920;28;20064;-59
2021/04/13 02:22:27;;;;;;;10.88;6.25;;;7.40;53.80;;;;;;5053460;28;20103;-60
2021/04/13 02:24:59;;;;;;;14.23;6.97;;;7.50;53.70;;;;;;5053125;28;20068;-59
2021/04/13 02:27:30;;;;;;;10.30;6.68;;;7.50;53.30;;;;;;5035673;28;20134;-61
2021/04/13 02:30:12;;;;;;;13.38;7.13;;;7.50;53.50;;;;;;5053476;28;20099;-56
2021/04/13 02:32:45;;;;;;;15.57;7.95;;;7.50;53.70;;;;;;5052839;28;20088;-59
2021/04/13 02:35:20;;;;;;;15.43;7.15;;;7.40;54.00;;;;;;5035474;28;20037;-60
2021/04/13 02:38:00;;;;;;;13.13;7.15;;;7.40;54.00;;;;;;5053143;28;20047;-60
2021/04/13 02:40:47;;;;;;;14.93;7.25;;;7.40;54.30;;;;;;5052704;28;20052;-60
2021/04/13 02:43:28;;;;;;;12.25;7.25;;;7.40;54.00;;;;;;5053193;28;20431;-60
2021/04/13 02:46:00;;;;;;;17.02;7.03;;;7.40;54.10;;;;;;5053375;28;20048;-60
2021/04/13 02:48:41;;;;;;;14.52;7.18;;;7.30;54.20;;;;;;5053016;28;20045;-59
2021/04/13 02:51:13;;;;;;;13.43;7.28;;;7.20;54.60;;;;;;5052948;28;20053;-59
2021/04/13 02:53:53;;;;;;;13.15;7.35;;;7.10;54.80;;;;;;5052362;28;20107;-59
2021/04/13 02:56:26;;;;;;;14.80;7.53;;;7.20;54.80;;;;;;5052692;28;20069;-60
2021/04/13 02:59:07;;;;;;;16.13;8.05;;;7.30;54.80;;;;;;5052375;28;20090;-60
2021/04/13 03:01:35;;;;;;;19.27;7.68;;;7.30;54.60;;;;;;5052522;28;20033;-60
2021/04/13 03:04:11;;;;;;;20.80;7.70;;;7.30;54.50;;;;;;5052475;28;20060;-60
2021/04/13 03:06:43;;;;;;;18.10;7.63;;;7.20;55.10;;;;;;5051822;28;20454;-60
2021/04/13 03:09:11;;;;;;;23.27;7.95;;;7.10;55.50;;;;;;5052513;28;20048;-59
2021/04/13 03:11:45;;;;;;;16.40;7.90;;;6.90;55.20;;;;;;5052493;28;20040;-60
2021/04/13 03:14:17;;;;;;;17.15;8.30;;;6.90;55.50;;;;;;5052262;28;20163;-59
2021/04/13 03:16:46;;;;;;;15.65;8.25;;;7.00;55.60;;;;;;5034994;28;20056;-59
2021/04/13 03:19:17;;;;;;;13.95;7.75;;;7.10;55.40;;;;;;5052135;28;20502;-60
2021/04/13 03:21:50;;;;;;;13.77;8.45;;;6.70;56.00;;;;;;5052303;28;20033;-60
2021/04/13 03:24:25;;;;;;;20.35;9.25;;;6.70;56.40;;;;;;5052142;28;20438;-60
2021/04/13 03:26:58;;;;;;;20.80;8.48;;;6.80;56.00;;;;;;5052315;28;20045;-59
2021/04/13 03:29:37;;;;;;;17.00;8.85;;;6.80;55.90;;;;;;5052475;28;20041;-59
2021/04/13 03:32:05;;;;;;;26.95;9.15;;;6.90;55.60;;;;;;5052293;28;20067;-59
2021/04/13 03:34:32;;;;;;;17.67;8.57;;;;;;;;;;5052315;28;20045;-61
2021/04/13 03:37:00;;;;;;;25.58;9.60;;;;;;;;;;5051858;28;20082;-60
2021/04/13 03:39:32;;;;;;;19.95;9.68;;;7.10;55.00;;;;;;5052108;28;20057;-61
2021/04/13 03:41:59;;;;;;;15.10;8.85;;;;;;;;;;5051888;28;20032;-61
2021/04/13 03:44:27;;;;;;;19.35;9.15;;;7.20;54.80;;;;;;5052207;28;20076;-62
2021/04/13 03:46:58;;;;;;;22.63;9.52;;;7.10;55.30;;;;;;5051860;28;20098;-60
2021/04/13 03:49:29;;;;;;;18.35;9.48;;;7.10;55.50;;;;;;5052144;28;20045;-60
2021/04/13 03:52:00;;;;;;;21.35;9.23;;;7.20;55.30;;;;;;5033577;28;20051;-60
2021/04/13 03:54:33;;;;;;;24.60;10.27;;;7.10;55.50;;;;;;5052113;28;20067;-59
2021/04/13 03:57:01;;;;;;;22.35;10.48;;;;;;;;;;5051567;28;20048;-58
2021/04/13 03:59:43;;;;;;;16.30;9.32;;;6.90;55.90;;;;;;5052150;28;20037;-60
2021/04/13 04:02:11;;;;;;;16.63;9.85;;;;;;;;;;5051540;28;20394;-61
2021/04/13 04:04:42;;;;;;;18.70;10.02;;;7.00;55.90;;;;;;5051417;28;20055;-60
2021/04/13 04:07:26;;;;;;;20.23;10.15;;;7.00;55.60;;;;;;5051170;28;20033;-60
2021/04/13 04:09:53;;;;;;;24.95;9.98;;;;;;;;;;5034355;28;20514;-59
2021/04/13 04:12:24;;;;;;;;;;;7.00;55.30;;;;;;5051645;28;20041;-58
2021/04/13 04:15:06;;;;;;;19.38;10.50;;;7.10;55.30;;;;;;5051566;28;20678;-60
2021/04/13 04:17:45;;;;;;;25.55;9.80;;;7.00;55.60;;;;;;5051708;28;20124;-60
2021/04/13 04:20:14;;;;;;;21.95;9.90;;;7.10;55.00;;;;;;5054022;28;20053;-60
2021/04/13 04:22:57;;;;;;;22.60;10.45;;;7.10;55.00;;;;;;5055504;28;20049;-60
2021/04/13 04:25:35;;;;;;;19.90;11.05;;;7.10;55.40;;;;;;5055526;28;20096;-59
2021/04/13 04:28:11;;;;;;;23.30;11.30;;;7.10;55.40;;;;;;5055341;28;20036;-59
2021/04/13 04:30:38;;;;;;;19.08;10.50;;;;;;;;;;5055575;28;20428;-59
2021/04/13 04:33:05;;;;;;;;;;;7.00;55.40;;;;;;5056089;28;20037;-59
2021/04/13 04:35:42;;;;;;;;;;;7.00;56.40;;;;;;5055735;28;20333;-60
2021/04/13 04:38:09;;;;;;;17.30;9.52;;;;;;;;;;5037387;28;19929;-61
2021/04/13 04:40:36;;;;;;;;;;;7.10;55.00;;;;;;5055991;28;20084;-54
2021/04/13 04:43:14;;;;;;;22.65;10.32;;;7.00;55.40;;;;;;5055258;28;19921;-61
2021/04/13 04:45:43;;;;;;;19.55;10.60;;;6.90;56.00;;;;;;5055427;28;20037;-58
2021/04/13 04:48:25;;;;;;;20.70;10.98;;;6.90;56.00;;;;;;5055396;28;20124;-55
2021/04/13 04:50:59;;;;;;;21.65;10.80;;;6.90;56.30;;;;;;5054859;28;20073;-57
2021/04/13 04:53:28;;;;;;;34.22;12.13;;;6.80;56.30;;;;;;5055049;28;20100;-59
2021/04/13 04:55:57;;;;;;;20.95;12.02;;;6.80;56.20;;;;;;5055437;28;20501;-59
2021/04/13 04:58:24;;;;;;;18.83;10.75;;;;;;;;;;5054784;28;20071;-61
2021/04/13 05:00:53;;;;;;;22.85;13.05;;;6.90;56.00;;;;;;5055286;28;20549;-61
2021/04/13 05:03:24;;;;;;;24.30;11.43;;;7.00;56.10;;;;;;5054211;28;20167;-60
2021/04/13 05:05:52;;;;;;;29.38;12.30;;;;;;;;;;5055110;28;20522;-61
2021/04/13 05:08:19;;;;;;;22.10;11.77;;;7.10;56.00;;;;;;5055163;28;20474;-60
2021/04/13 05:10:47;;;;;;;18.48;10.60;;;7.00;56.10;;;;;;5054524;28;20044;-59
2021/04/13 05:13:15;;;;;;;28.40;12.57;;;;;;;;;;5054869;28;20052;-60
2021/04/13 05:15:42;;;;;;;28.60;11.75;;;;;;;;;;5054590;28;20402;-60
2021/04/13 05:18:08;;;;;;;;;;;7.10;55.70;;;;;;5054480;28;20045;-61
2021/04/13 05:20:35;;;;;;;20.92;11.45;;;;;;;;;;5054448;28;20015;-61
2021/04/13 05:23:03;;;;;;;25.60;10.95;;;;;;;;;;5054655;28;20075;-60
2021/04/13 05:25:29;;;;;;;25.52;11.65;;;;;;;;;;5054909;28;20068;-60
2021/04/13 05:27:56;;;;;;;;;;;7.20;55.80;;;;;;5054850;28;20056;-61
2021/04/13 05:30:24;;;;;;;21.70;11.75;;;;;;;;;;5053904;28;19956;-61
2021/04/13 05:32:51;;;;;;;22.27;10.88;;;;;;;;;;5054040;28;20419;-58
2021/04/13 05:35:19;;;;;;;22.77;11.95;;;7.20;56.70;;;;;;5054135;28;20458;-59
2021/04/13 05:37:47;;;;;;;20.73;11.43;;;;;;;;;;5040980;28;20057;-60
2021/04/13 05:40:20;;;;;;;24.17;11.48;;;7.00;57.00;;;;;;5053834;28;20068;-61
2021/04/13 05:42:47;;;;;;;17.90;10.63;;;;;;;;;;5054095;28;20049;-59
2021/04/13 05:45:16;;;;;;;21.45;10.65;;;6.80;57.00;;;;;;5053771;28;20061;-61
2021/04/13 05:47:43;;;;;;;22.80;10.13;;;;;;;;;;5053296;28;20347;-61
2021/04/13 05:50:16;;;;;;;19.70;10.40;;;7.00;57.30;;;;;;5053715;28;20044;-59
2021/04/13 05:52:43;;;;;;;22.70;10.02;;;;;;;;;;5053633;28;20041;-57
2021/04/13 05:55:10;;;;;;;;;;;6.90;57.50;;;;;;5036432;28;20520;-60
2021/04/13 05:57:37;;;;;;;19.15;9.73;;;;;;;;;;5053744;28;20378;-60
2021/04/13 06:00:05;;;;;;;18.52;9.93;;;7.20;57.00;;;;;;4333479;28;10000525;-61
2021/04/13 06:02:34;;;;;;;22.35;10.15;;;7.40;56.40;;;;;;5050910;28;20099;-60
2021/04/13 06:05:03;;;;;;;17.83;9.48;;;7.50;56.10;;;;;;5051540;28;20060;-60
2021/04/13 06:07:34;;;;;;;16.45;9.85;;;;;;;;;;5051202;28;20836;-60
2021/04/13 06:10:01;;;;;;;18.67;9.73;;;;;;;;;;5051379;28;20064;-59
2021/04/13 06:12:28;;;;;;;20.88;11.00;;;;;;;;;;5050499;28;20045;-59
2021/04/13 06:14:55;;;;;;;;;;;7.90;55.40;;;;;;5051615;28;20045;-60
2021/04/13 06:17:22;;;;;;;19.67;9.57;;;;;;;;;;5032864;28;19925;-59
2021/04/13 06:19:49;;;;;;;26.33;9.07;;;;;;;;;;5050648;28;20067;-59
2021/04/13 06:22:17;;;;;;;21.48;10.63;;;;;;;;;;5051262;28;20081;-60
2021/04/13 06:24:44;;;;;;;20.55;9.20;;;;;;;;;;5050205;28;20544;-62
2021/04/13 06:27:10;;;;;;;;;;;8.00;55.20;;;;;;5051295;28;20107;-62
2021/04/13 06:29:38;;;;;;;18.30;9.63;;;;;;;;;;5032870;28;20398;-60
2021/04/13 06:32:09;;;;;;;23.65;9.40;;;8.40;54.20;;;;;;5050736;28;20379;-61
2021/04/13 06:34:36;;;;;;;19.63;9.80;;;;;;;;;;5050303;28;20056;-60
2021/04/13 06:37:06;;;;;;;18.80;8.02;;;8.30;54.40;;;;;;5050137;28;20041;-61
2021/04/13 06:39:34;;;;;;;24.48;9.40;;;8.50;54.10;;;;;;5050072;28;20057;-61
2021/04/13 06:42:10;;;;;;;26.52;9.82;;;8.60;54.40;;;;;;5049233;28;20076;-61
2021/04/13 06:44:57;;;;;;;18.83;8.88;;;8.80;54.10;;;;;;5050052;28;20673;-61
2021/04/13 06:47:24;;;;;;;18.20;9.23;;;;;;;;;;5049605;28;20394;-59
2021/04/13 06:50:22;;;;;;;21.35;9.43;;;9.10;53.60;;;;;;5049857;28;20049;-61
2021/04/13 06:53:16;;;;;;;18.52;8.73;;;9.10;53.00;;;;;;5051234;28;20045;-59
2021/04/13 06:56:31;;;;;;;23.40;8.85;;;9.10;52.80;;;;;;5030270;28;20056;-60
2021/04/13 06:59:30;;;;;;;19.38;8.10;;;9.10;52.80;;;;;;4985922;28;20065;-60
2021/04/13 07:02:02;;;;;;;25.42;8.15;;;9.40;52.60;;;;;;4990416;28;20050;-60
2021/04/13 07:04:44;;;;;;;18.52;7.95;;;9.40;52.20;;;;;;4990508;28;20081;-62
2021/04/13 07:07:18;;;;;;;26.38;7.97;;;9.80;52.30;;;;;;4990072;28;20046;-60
2021/04/13 07:09:58;;;;;;;20.52;8.10;;;9.80;51.80;;;;;;4981085;28;20452;-60
2021/04/13 07:12:50;;;;;;;13.93;7.05;;;9.80;51.40;;;;;;4990112;28;20046;-59
2021/04/13 07:15:31;;;;;;;17.88;7.38;;;10.10;51.70;;;;;;5006067;28;20089;-61
2021/04/13 07:18:08;;;;;;;15.32;6.68;;;10.30;50.50;;;;;;4990060;28;20054;-59
2021/04/13 07:20:45;;;;;;;21.55;7.13;;;10.50;50.40;;;;;;4990003;28;20061;-61
2021/04/13 07:23:22;;;;;;;;;;;10.40;50.80;;;;;;4990674;28;20063;-58
2021/04/13 07:25:54;;;;;;;17.88;6.25;;;10.70;48.90;;;;;;4983751;28;20483;-60
2021/04/13 07:28:24;;;;;;;19.63;5.65;;;10.90;49.30;;;;;;4962363;28;20055;-61
2021/04/13 07:31:08;;;;;;;15.68;5.90;;;11.20;48.70;;;;;;4989734;28;20050;-62
2021/04/13 07:33:35;;;;;;;14.80;5.40;;;;;;;;;;4965179;28;20042;-61
2021/04/13 07:36:13;;;;;;;15.05;6.00;;;11.50;48.00;;;;;;5037808;28;20045;-62
2021/04/13 07:38:44;;;;;;;13.25;5.72;;;11.60;47.30;;;;;;5025229;28;20079;-61
2021/04/13 07:41:19;;;;;;;15.63;7.18;;;11.40;47.70;;;;;;5051354;28;20091;-61
2021/04/13 07:43:53;;;;;;;14.57;5.10;;;11.90;47.90;;;;;;5033291;28;20091;-61
2021/04/13 07:46:45;;;;;;;12.93;5.07;;;12.20;46.90;;;;;;5051337;28;20502;-59
2021/04/13 07:49:31;;;;;;;9.60;4.82;;;12.40;46.30;;;;;;5050967;28;20159;-60
2021/04/13 07:52:16;;;;;;;16.17;5.10;;;12.60;45.60;;;;;;5050783;28;20045;-60
2021/04/13 07:54:43;;;;;;;19.25;5.25;;;;;;;;;;5037858;28;20072;-60
2021/04/13 07:57:12;;;;;;;;;;;12.60;44.90;;;;;;5049843;28;20127;-62
2021/04/13 08:00:05;;;;;;;15.35;5.35;;;13.10;43.90;;;;;;5047300;28;19963;-61
2021/04/13 08:02:40;;;;;;;10.60;5.43;;;13.40;44.00;;;;;;5027682;28;20137;-61
2021/04/13 08:05:10;;;;;;;14.32;4.88;;;13.50;43.30;;;;;;5044415;28;20053;-61
2021/04/13 08:08:02;;;;;;;14.43;5.28;;;13.50;42.60;;;;;;5034148;28;20052;-61
2021/04/13 08:10:29;;;;;;;20.30;5.03;;;;;;;;;;5049913;28;20041;-62
2021/04/13 08:13:02;;;;;;;11.25;4.88;;;13.90;43.30;;;;;;5041461;28;20045;-63
2021/04/13 08:15:39;;;;;;;10.48;4.65;;;14.10;42.70;;;;;;5050998;28;20041;-61
2021/04/13 08:18:18;;;;;;;14.38;4.40;;;14.20;42.20;;;;;;5050743;28;20176;-62
2021/04/13 08:20:46;;;;;;;14.27;4.13;;;14.40;40.80;;;;;;5050383;28;20041;-61
2021/04/13 08:23:22;;;;;;;12.23;4.32;;;14.50;41.60;;;;;;5050608;28;20064;-60
2021/04/13 08:26:12;;;;;;;15.40;3.92;;;14.60;39.40;;;;;;5038098;28;20052;-63
2021/04/13 08:28:51;;;;;;;7.10;3.38;;;14.70;39.90;;;;;;5050102;28;20056;-60
2021/04/13 08:35:04;;;;;;;9.25;3.28;;;14.90;39.00;;;;;;5044080;28;20092;-62
2021/04/13 08:37:50;;;;;;;11.80;3.13;;;14.80;38.10;;;;;;4973515;28;20101;-61
2021/04/13 08:40:35;;;;;;;12.77;3.75;;;15.10;38.60;;;;;;4986426;28;20038;-59
2021/04/13 08:43:11;;;;;;;15.50;3.42;;;15.30;38.60;;;;;;4983879;28;20069;-61
2021/04/13 08:45:45;;;;;;;9.85;3.70;;;15.30;38.10;;;;;;4964996;28;20061;-61
2021/04/13 08:48:22;;;;;;;15.43;3.45;;;14.80;38.30;;;;;;4984711;28;20054;-60
2021/04/13 08:51:11;;;;;;;10.02;4.05;;;15.10;38.20;;;;;;4972437;28;20046;-62
2021/04/13 08:53:44;;;;;;;14.52;3.28;;;15.00;36.10;;;;;;4976027;28;20046;-57
2021/04/13 08:56:24;;;;;;;11.23;3.35;;;15.00;37.30;;;;;;4968914;28;20046;-60
2021/04/13 08:58:54;;;;;;;12.65;3.20;;;15.00;36.60;;;;;;4969674;28;20051;-61
2021/04/13 09:01:35;;;;;;;9.32;3.08;;;14.90;37.30;;;;;;4982523;28;20054;-61
2021/04/13 09:04:08;;;;;;;7.13;2.83;;;15.00;36.30;;;;;;4965645;28;20053;-61
2021/04/13 09:06:56;;;;;;;7.40;2.88;;;15.00;35.90;;;;;;4985169;28;20050;-60
2021/04/13 09:09:30;;;;;;;9.68;3.00;;;15.00;38.20;;;;;;4977478;28;20051;-61
2021/04/13 09:12:23;;;;;;;9.85;3.40;;;15.40;37.70;;;;;;4989294;28;20050;-61
2021/04/13 09:14:57;;;;;;;18.35;3.58;;;16.00;35.80;;;;;;5046217;28;20060;-61
2021/04/13 09:17:40;;;;;;;15.77;3.22;;;;;;;;;;5054049;28;20124;-59
2021/04/13 09:20:07;;;;;;;7.55;3.00;;;;;;;;;;5053452;28;20100;-60
2021/04/13 09:22:46;;;;;;;8.45;3.20;;;16.10;34.30;;;;;;5041663;28;20041;-61
2021/04/13 09:25:17;;;;;;;8.23;2.90;;;16.20;34.50;;;;;;5045004;28;20072;-60
2021/04/13 09:27:57;;;;;;;13.15;2.88;;;16.20;32.80;;;;;;5054126;28;20057;-61
2021/04/13 09:30:29;;;;;;;13.30;2.60;;;16.10;33.00;;;;;;5053360;28;20095;-60
2021/04/13 09:33:07;;;;;;;6.50;2.60;;;15.80;31.80;;;;;;5041371;28;20041;-59
2021/04/13 09:35:48;;;;;;;7.95;2.72;;;15.80;32.80;;;;;;5047018;28;20048;-63
2021/04/13 09:38:42;;;;;;;9.75;2.53;;;16.00;35.40;;;;;;5052352;28;20045;-60
2021/04/13 09:41:09;;;;;;;5.07;2.47;;;;;;;;;;5053080;28;20040;-60
2021/04/13 09:43:54;;;;;;;14.20;2.90;;;16.40;32.70;;;;;;5053649;28;20029;-62
2021/04/13 09:46:48;;;;;;;7.10;2.72;;;16.20;32.10;;;;;;5053389;28;20055;-60
2021/04/13 09:49:32;;;;;;;11.73;2.93;;;16.50;32.30;;;;;;5051532;28;20067;-61
2021/04/13 09:52:11;;;;;;;7.72;2.83;;;16.60;31.70;;;;;;5040273;28;20045;-61
2021/04/13 09:54:44;;;;;;;11.80;2.88;;;16.70;31.70;;;;;;5039141;28;20041;-61
2021/04/13 09:57:11;;;;;;;7.78;2.30;;;;;;;;;;5035827;28;20130;-62
2021/04/13 10:00:06;;;;;;;7.18;2.75;;;17.60;32.00;;;;;;5044147;28;20040;-61
2021/04/13 10:02:57;;;;;;;6.93;2.58;;;18.00;30.50;;;;;;4977367;28;20058;-57
2021/04/13 10:05:37;;;;;;;8.48;2.50;;;17.80;28.00;;;;;;4982133;28;20031;-60
2021/04/13 10:08:22;;;;;;;6.90;2.60;;;18.20;29.90;;;;;;4980637;28;20062;-61
2021/04/13 10:11:19;;;;;;;8.95;2.78;;;18.60;28.70;;;;;;4984385;28;20158;-60
2021/04/13 10:14:00;;;;;;;9.18;2.53;;;18.40;27.40;;;;;;4991289;28;20070;-60
2021/04/13 10:16:37;;;;;;;7.80;2.30;;;18.20;27.10;;;;;;4977698;28;20402;-59
2021/04/13 10:19:37;;;;;;;8.70;2.45;;;17.70;28.50;;;;;;4986745;28;20058;-60
2021/04/13 10:22:41;;;;;;;4.75;2.40;;;17.80;27.90;;;;;;4982683;28;20509;-61
2021/04/13 10:25:43;;;;;;;4.38;2.08;;;17.70;26.60;;;;;;4982718;28;20038;-61
2021/04/13 10:28:40;;;;;;;7.75;2.47;;;17.50;28.40;;;;;;4972709;28;20051;-61
2021/04/13 10:31:48;;;;;;;8.50;2.33;;;18.10;28.50;;;;;;4975408;28;20059;-58
2021/04/13 10:34:53;;;;;;;4.78;2.38;;;18.40;28.70;;;;;;4277925;28;10000721;-59
2021/04/13 10:37:39;;;;;;;8.13;2.65;;;19.00;28.80;;;;;;4968332;28;20501;-60
2021/04/13 10:40:40;;;;;;;5.60;2.28;;;18.70;26.90;;;;;;4973194;28;20061;-62
2021/04/13 10:43:11;;;;;;;8.13;2.30;;;;;;;;;;4987911;28;20061;-61
2021/04/13 10:46:15;;;;;;;10.38;2.70;;;19.60;28.10;;;;;;4987691;28;20046;-62
2021/04/13 10:48:56;;;;;;;10.10;2.42;;;20.00;26.10;;;;;;5001133;28;20117;-62
2021/04/13 10:51:54;;;;;;;9.77;2.20;;;20.00;26.80;;;;;;4995637;28;20061;-61
2021/04/13 10:54:45;;;;;;;6.40;2.47;;;19.50;25.70;;;;;;4995894;28;20073;-62
2021/04/13 10:57:28;;;;;;;7.53;2.15;;;19.30;25.70;;;;;;4991835;28;20054;-62
2021/04/13 11:00:01;;;;;;;5.72;2.15;;;18.90;25.20;;;;;;4983163;28;20057;-57
2021/04/13 11:02:39;;;;;;;5.47;2.35;;;19.40;27.60;;;;;;4997173;28;20070;-60
2021/04/13 11:05:47;;;;;;;7.10;2.30;;;19.50;26.30;;;;;;4993787;28;20089;-62
2021/04/13 11:08:36;;;;;;;6.05;2.78;;;19.90;27.10;;;;;;4948569;29;20102;-61
2021/04/13 11:11:31;;;;;;;5.20;2.60;;;19.70;24.00;;;;;;4974725;28;20053;-60
2021/04/13 11:14:31;;;;;;;6.95;2.25;;;20.20;26.00;;;;;;5007215;28;20073;-62
2021/04/13 11:17:07;;;;;;;7.47;2.42;;;20.50;24.50;;;;;;5001962;28;20095;-62
2021/04/13 11:20:14;;;;;;;5.85;2.03;;;19.70;24.30;;;;;;5004796;28;20650;-62
2021/04/13 11:23:02;;;;;;;5.32;2.42;;;19.70;25.60;;;;;;5007028;28;20468;-62
2021/04/13 11:26:04;;;;;;;3.03;1.95;;;18.60;24.20;;;;;;4998888;28;20082;-62
2021/04/13 11:29:04;;;;;;;9.57;2.72;;;18.30;26.40;;;;;;4991695;28;20039;-60
2021/04/13 11:32:08;;;;;;;7.13;2.70;;;18.50;25.90;;;;;;5003570;28;20548;-61
2021/04/13 11:34:46;;;;;;;5.35;2.45;;;17.90;26.70;;;;;;4990167;28;20046;-61
2021/04/13 11:37:13;;;;;;;3.25;2.30;;;;;;;;;;5007111;28;20053;-61
2021/04/13 11:40:09;;;;;;;10.05;2.67;;;17.80;28.00;;;;;;5006818;28;20078;-62
2021/04/13 11:42:40;;;;;;;5.05;2.33;;;18.30;26.30;;;;;;5006865;28;20176;-62
2021/04/13 11:45:31;;;;;;;6.35;2.47;;;18.00;25.70;;;;;;5024417;28;20084;-62
2021/04/13 11:48:22;;;;;;;5.38;2.22;;;18.50;25.80;;;;;;5043189;28;20056;-61
2021/04/13 11:51:00;;;;;;;5.15;2.45;;;19.20;25.60;;;;;;5048062;28;20069;-62
2021/04/13 11:53:35;;;;;;;12.75;2.60;;;19.80;26.40;;;;;;5046278;28;20739;-61
2021/04/13 11:56:29;;;;;;;8.32;2.22;;;18.90;24.40;;;;;;5016111;28;20551;-63
2021/04/13 11:59:17;;;;;;;7.82;2.25;;;18.80;25.20;;;;;;5027391;28;20056;-63
2021/04/13 12:01:46;;;;;;;4.72;2.40;;;19.10;26.30;;;;;;5043574;28;20041;-62
2021/04/13 12:04:20;;;;;;;8.95;2.47;;;19.30;24.50;;;;;;5040205;28;20049;-63
2021/04/13 12:07:04;;;;;;;;;;;19.20;25.00;;;;;;5048901;28;20052;-63
2021/04/13 12:10:00;;;;;;;4.78;2.28;;;19.60;23.60;;;;;;5047916;28;19924;-63
2021/04/13 12:12:32;;;;;;;7.38;2.45;;;19.40;25.20;;;;;;5029977;28;20098;-63
2021/04/13 12:15:19;;;;;;;3.50;1.98;;;19.60;24.30;;;;;;5026889;28;20574;-62
2021/04/13 12:17:49;;;;;;;4.22;2.38;;;19.50;24.10;;;;;;5027461;28;20754;-61
2021/04/13 12:22:56;;;;;;;5.15;2.20;;;19.70;24.50;;;;;;5048556;28;20064;-62
2021/04/13 12:25:40;;;;;;;4.10;2.00;;;19.70;23.80;;;;;;5031163;28;20050;-62
2021/04/13 12:28:34;;;;;;;6.60;2.22;;;19.60;23.60;;;;;;5036167;28;20051;-62
2021/04/13 12:31:23;;;;;;;5.47;1.90;;;19.90;24.20;;;;;;5044758;28;20045;-62
2021/04/13 12:33:57;;;;;;;3.95;2.00;;;20.10;24.40;;;;;;5030312;28;20048;-60
2021/04/13 12:36:42;;;;;;;3.45;1.90;;;19.90;23.60;;;;;;5048619;28;20411;-61
2021/04/13 12:39:11;;;;;;;4.25;2.13;;;19.30;23.00;;;;;;5048607;28;20052;-61
2021/04/13 12:41:58;;;;;;;6.80;2.38;;;18.90;23.20;;;;;;5051573;28;20083;-58
2021/04/13 12:44:28;;;;;;;6.13;2.28;;;18.60;24.60;;;;;;5050725;28;20087;-64
2021/04/13 12:46:57;;;;;;;7.38;2.40;;;18.40;24.30;;;;;;5052091;28;20102;-61
2021/04/13 12:49:34;;;;;;;2.85;2.10;;;18.20;24.90;;;;;;5052097;28;20156;-61
2021/04/13 12:52:21;;;;;;;5.55;2.30;;;18.00;25.90;;;;;;5051661;28;20068;-62
2021/04/13 12:54:48;;;;;;;5.28;2.42;;;18.10;25.60;;;;;;5036953;28;20454;-62
2021/04/13 12:57:18;;;;;;;7.22;2.55;;;18.20;25.20;;;;;;5033088;28;20137;-63
2021/04/13 12:59:46;;;;;;;5.68;2.30;;;17.90;25.30;;;;;;5032549;28;20458;-63
2021/04/13 13:02:36;;;;;;;8.60;2.38;;;17.80;25.30;;;;;;5050075;28;20486;-62
2021/04/13 13:05:27;;;;;;;9.15;3.00;;;17.40;26.00;;;;;;5040672;28;20071;-63
2021/04/13 13:08:18;;;;;;;4.53;2.22;;;17.20;26.40;;;;;;5051689;28;20399;-64
2021/04/13 13:10:51;;;;;;;3.70;2.10;;;17.40;25.80;;;;;;5051433;28;20056;-63
2021/04/13 13:13:39;;;;;;;7.70;2.78;;;17.20;24.90;;;;;;5052163;28;20483;-63
2021/04/13 13:16:17;;;;;;;4.97;2.30;;;16.90;25.60;;;;;;5024424;28;20040;-63
2021/04/13 13:18:50;;;;;;;4.78;2.20;;;17.40;25.90;;;;;;5033650;28;20041;-62
2021/04/13 13:21:20;;;;;;;4.07;1.98;;;17.50;26.50;;;;;;5051265;28;20048;-63
2021/04/13 13:23:57;;;;;;;7.82;2.30;;;18.20;25.10;;;;;;5037466;28;20037;-64
2021/04/13 13:26:26;;;;;;;6.03;2.45;;;17.50;25.40;;;;;;5035786;28;20037;-62
2021/04/13 13:28:53;;;;;;;7.72;2.70;;;17.10;25.80;;;;;;5045825;28;20045;-61
2021/04/13 13:31:36;;;;;;;5.80;2.50;;;17.00;27.10;;;;;;5047539;28;20506;-61
2021/04/13 13:34:13;;;;;;;10.55;2.85;;;16.40;27.60;;;;;;5028323;28;20132;-62
2021/04/13 13:36:41;;;;;;;6.75;2.50;;;16.00;27.70;;;;;;5051138;28;20033;-61
2021/04/13 13:39:18;;;;;;;7.22;2.80;;;16.10;28.40;;;;;;5050969;28;20098;-62
2021/04/13 13:41:51;;;;;;;8.45;2.50;;;16.20;28.20;;;;;;5044025;28;20068;-61
2021/04/13 13:44:25;;;;;;;7.72;2.70;;;16.10;27.20;;;;;;5051387;28;20053;-61
2021/04/13 13:47:19;;;;;;;8.55;2.45;;;16.10;27.60;;;;;;5050869;28;20045;-62
2021/04/13 13:49:51;;;;;;;5.30;2.55;;;15.90;27.70;;;;;;5051093;28;20110;-61
2021/04/13 13:52:44;;;;;;;5.20;2.53;;;16.10;28.20;;;;;;5039177;28;20065;-61
2021/04/13 13:55:16;;;;;;;6.90;2.60;;;16.50;27.50;;;;;;5034307;28;20072;-61
2021/04/13 13:57:56;;;;;;;5.93;2.70;;;16.80;26.80;;;;;;5037976;28;20037;-62
2021/04/13 14:00:40;;;;;;;5.13;2.45;;;17.30;26.60;;;;;;5035244;28;20126;-62
2021/04/13 14:03:19;;;;;;;5.47;2.30;;;17.70;26.60;;;;;;5026978;28;20069;-61
2021/04/13 14:06:09;;;;;;;8.18;2.60;;;18.20;25.60;;;;;;5023234;28;20036;-62
2021/04/13 14:08:45;;;;;;;7.72;2.75;;;18.40;24.90;;;;;;5044620;28;20061;-62